Time;durP1;ratioP1;P1;durP2;ratioP2;P2;SDS_P1;SDS_P2;PMS_P1;PMS_P2;Temp;Humidity;BMP_temperature;BMP_pressure;BME280_temperature;BME280_humidity;BME280_pressure;Samples;Min_cycle;Max_cycle;Signal;HPM_P1;HPM_P2
2022/06/03 00:00:25;;;;;;;11.70;4.70;;;;;16.72;97791.00;;;;108826;1267;41694;-65
2022/06/03 00:03:40;;;;;;;9.90;4.40;;;;;16.80;97786.40;;;;108742;1270;41783;-66
2022/06/03 00:06:27;;;;;;;9.00;4.10;;;;;16.80;97784.60;;;;108805;1269;41177;-66
2022/06/03 00:09:30;;;;;;;10.30;4.10;;;;;16.80;97783.20;;;;108820;1268;41177;-66
2022/06/03 00:12:10;;;;;;;10.20;4.30;;;;;16.54;97782.60;;;;108788;1267;41342;-67
2022/06/03 00:15:21;;;;;;;11.00;3.90;;;;;16.34;97779.80;;;;108812;1268;41990;-67
2022/06/03 00:17:58;;;;;;;8.90;4.10;;;;;16.14;97780.00;;;;108780;1267;41587;-65
2022/06/03 00:20:41;;;;;;;8.30;4.00;;;;;16.10;97782.80;;;;108804;1266;41214;-66
2022/06/03 00:23:24;;;;;;;7.80;3.60;;;;;16.10;97786.40;;;;108869;1268;41275;-66
2022/06/03 00:26:25;;;;;;;8.60;3.90;;;;;16.10;97783.40;;;;108958;1269;41740;-64
2022/06/03 00:29:14;;;;;;;9.10;3.90;;;;;16.10;97776.00;;;;108800;1269;41163;-64
2022/06/03 00:31:50;;;;;;;8.50;3.90;;;;;16.10;97773.60;;;;108830;1269;41175;-65
2022/06/03 00:34:23;;;;;;;11.20;4.10;;;;;16.20;97770.80;;;;108770;1269;41387;-66
2022/06/03 00:37:18;;;;;;;9.90;4.20;;;;;16.10;97773.00;;;;108827;1269;41455;-69
2022/06/03 00:40:11;;;;;;;9.80;4.50;;;;;16.00;97780.80;;;;108814;1269;41947;-65
2022/06/03 00:43:06;;;;;;;9.20;4.40;;;;;16.00;97783.00;;;;108829;1269;41167;-66
2022/06/03 00:45:59;;;;;;;8.10;4.00;;;;;16.10;97782.80;;;;108763;1270;41310;-66
2022/06/03 00:48:58;;;;;;;8.80;3.60;;;;;16.08;97781.40;;;;108827;1270;41295;-66
2022/06/03 00:51:58;;;;;;;7.90;3.30;;;;;16.00;97779.80;;;;108786;1270;41184;-67
2022/06/03 00:55:05;;;;;;;9.70;4.40;;;;;16.00;97780.80;;;;108788;1270;41295;-67
2022/06/03 00:57:53;;;;;;;13.40;4.50;;;;;16.00;97791.80;;;;108825;1268;41181;-66
2022/06/03 01:00:32;;;;;;;9.40;4.00;;;;;16.00;97790.80;;;;108799;1269;41683;-66
2022/06/03 01:03:23;;;;;;;9.60;4.10;;;;;16.00;97787.80;;;;108796;1270;41179;-66
2022/06/03 01:06:02;;;;;;;8.20;3.90;;;;;16.00;97783.80;;;;108878;1270;41358;-65
2022/06/03 01:08:53;;;;;;;9.30;4.20;;;;;16.00;97776.20;;;;108786;1269;41431;-66
2022/06/03 01:11:51;;;;;;;10.20;3.70;;;;;15.90;97774.80;;;;108745;1269;41225;-65
2022/06/03 01:14:32;;;;;;;6.80;3.00;;;;;15.80;97783.80;;;;108893;1269;42048;-65
2022/06/03 01:17:21;;;;;;;6.80;3.10;;;;;15.80;97788.00;;;;108775;1269;41677;-66
2022/06/03 01:20:06;;;;;;;7.70;3.50;;;;;15.70;97789.20;;;;108772;1270;42405;-65
2022/06/03 01:23:02;;;;;;;7.70;3.20;;;;;15.70;97789.80;;;;108828;1268;41300;-65
2022/06/03 01:25:52;;;;;;;11.40;3.80;;;;;15.70;97790.00;;;;108595;1270;41304;-64
2022/06/03 01:28:59;;;;;;;7.80;3.60;;;;;15.70;97792.60;;;;108793;1270;41242;-65
2022/06/03 01:31:59;;;;;;;11.20;4.10;;;;;15.70;97790.20;;;;108759;1269;41678;-65
2022/06/03 01:34:38;;;;;;;;;;;;;15.78;97796.00;;;;108844;1270;41184;-66
2022/06/03 01:37:19;;;;;;;8.10;3.80;;;;;15.80;97800.00;;;;108756;1269;41169;-65
2022/06/03 01:40:15;;;;;;;8.50;3.10;;;;;15.80;97805.60;;;;108730;1270;41280;-65
2022/06/03 01:43:03;;;;;;;7.80;3.20;;;;;15.80;97810.40;;;;108799;1270;41741;-66
2022/06/03 01:45:50;;;;;;;10.20;4.50;;;;;15.80;97810.40;;;;108748;1270;41287;-65
2022/06/03 01:49:00;;;;;;;9.70;3.90;;;;;15.60;97806.20;;;;108701;1272;41208;-65
2022/06/03 01:51:45;;;;;;;10.00;4.30;;;;;15.50;97806.80;;;;108544;1270;41685;-66
2022/06/03 01:54:33;;;;;;;7.90;3.30;;;;;15.50;97807.80;;;;108756;1270;41297;-65
2022/06/03 01:57:45;;;;;;;8.10;3.60;;;;;15.50;97812.60;;;;108773;1271;41629;-65
2022/06/03 02:00:22;;;;;;;7.10;3.10;;;;;15.50;97812.20;;;;108644;1271;41179;-66
2022/06/03 02:03:05;;;;;;;11.60;4.40;;;;;15.50;97808.00;;;;108744;1270;41754;-64
2022/06/03 02:06:07;;;;;;;9.80;4.10;;;;;15.50;97810.20;;;;108762;1271;41274;-65
2022/06/03 02:09:12;;;;;;;7.00;3.20;;;;;15.50;97813.40;;;;108757;1270;41658;-66
2022/06/03 02:12:18;;;;;;;8.30;3.00;;;;;15.50;97821.20;;;;108755;1269;42550;-67
2022/06/03 02:15:05;;;;;;;8.50;3.80;;;;;15.50;97821.20;;;;108786;1270;41294;-66
2022/06/03 02:17:57;;;;;;;9.00;4.10;;;;;15.48;97824.20;;;;108751;1270;41198;-67
2022/06/03 02:20:46;;;;;;;7.40;3.40;;;;;15.40;97824.60;;;;108742;1270;41197;-67
2022/06/03 02:23:37;;;;;;;7.90;3.30;;;;;15.40;97829.00;;;;108771;1270;42493;-66
2022/06/03 02:26:27;;;;;;;7.30;3.20;;;;;15.40;97837.00;;;;108552;1272;41640;-66
2022/06/03 02:33:13;;;;;;;8.30;3.10;;;;;15.30;97856.40;;;;108267;1276;41264;-66
2022/06/03 02:35:49;;;;;;;7.80;3.40;;;;;15.30;97852.80;;;;108149;1277;41184;-67
2022/06/03 02:39:10;;;;;;;8.40;3.70;;;;;15.30;97852.40;;;;108228;1276;41168;-66
2022/06/03 02:41:58;;;;;;;9.20;3.70;;;;;15.30;97858.80;;;;107759;1282;41236;-66
2022/06/03 02:44:59;;;;;;;9.40;4.50;;;;;15.36;97850.20;;;;108483;1275;42426;-65
2022/06/03 02:48:08;;;;;;;;;;;;;15.32;97854.80;;;;108430;1275;41705;-66
2022/06/03 02:50:53;;;;;;;6.70;3.10;;;;;15.30;97860.80;;;;108288;1276;41640;-66
2022/06/03 02:54:00;;;;;;;8.50;3.50;;;;;15.30;97859.00;;;;108379;1276;42002;-65
2022/06/03 02:57:01;;;;;;;13.50;4.80;;;;;15.30;97860.80;;;;108420;1275;41974;-64
2022/06/03 02:59:46;;;;;;;9.00;4.50;;;;;15.10;97867.60;;;;108316;1275;41670;-66
2022/06/03 03:03:01;;;;;;;10.00;4.40;;;;;15.02;97869.20;;;;108470;1275;42415;-66
2022/06/03 03:05:38;;;;;;;11.90;4.40;;;;;15.00;97871.60;;;;108612;1273;41296;-66
2022/06/03 03:08:34;;;;;;;8.20;3.90;;;;;15.00;97871.20;;;;108669;1271;40829;-66
2022/06/03 03:11:26;;;;;;;10.20;4.30;;;;;15.10;97872.80;;;;108738;1270;41224;-65
2022/06/03 03:14:37;;;;;;;8.00;3.40;;;;;15.20;97874.60;;;;108667;1270;42392;-66
2022/06/03 03:17:36;;;;;;;7.50;3.40;;;;;15.32;97881.40;;;;108671;1270;42384;-64
2022/06/03 03:20:50;;;;;;;6.90;3.00;;;;;15.48;97879.60;;;;108665;1270;41391;-68
2022/06/03 03:23:49;;;;;;;8.50;3.90;;;;;15.60;97877.00;;;;108718;1270;41287;-67
2022/06/03 03:26:48;;;;;;;10.40;4.20;;;;;15.70;97879.20;;;;108704;1271;41647;-66
2022/06/03 03:29:54;;;;;;;8.70;4.40;;;;;15.72;97877.20;;;;108661;1272;41183;-65
2022/06/03 03:33:04;;;;;;;11.30;4.90;;;;;15.80;97880.80;;;;108706;1270;41306;-67
2022/06/03 03:36:11;;;;;;;10.00;4.40;;;;;15.78;97877.80;;;;108571;1273;41194;-67
2022/06/03 03:39:01;;;;;;;7.30;3.40;;;;;15.80;97880.60;;;;108733;1271;41297;-66
2022/06/03 03:42:01;;;;;;;9.40;4.30;;;;;15.90;97877.00;;;;108784;1268;41182;-65
2022/06/03 03:44:49;;;;;;;9.40;4.90;;;;;15.86;97874.00;;;;108817;1267;41197;-66
2022/06/03 03:47:55;;;;;;;9.50;4.40;;;;;15.88;97877.40;;;;108813;1267;41156;-66
2022/06/03 03:51:06;;;;;;;7.10;3.20;;;;;15.92;97870.20;;;;108760;1267;41997;-66
2022/06/03 03:54:13;;;;;;;7.90;3.40;;;;;16.10;97863.60;;;;108683;1267;41653;-65
2022/06/03 03:57:14;;;;;;;8.30;3.90;;;;;16.20;97862.00;;;;108803;1267;41180;-65
2022/06/03 03:59:50;;;;;;;;;;;;;16.40;97866.60;;;;108751;1269;41586;-66
2022/06/03 04:02:25;;;;;;;8.30;3.50;;;;;16.50;97870.00;;;;108923;1267;41520;-64
2022/06/03 04:05:04;;;;;;;8.10;3.60;;;;;16.62;97876.60;;;;108829;1267;41802;-64
2022/06/03 04:08:01;;;;;;;8.00;3.70;;;;;16.80;97878.40;;;;108801;1267;41736;-65
2022/06/03 04:11:15;;;;;;;8.60;3.40;;;;;17.00;97877.80;;;;108772;1267;42107;-65
2022/06/03 04:13:57;;;;;;;7.50;3.40;;;;;17.20;97870.80;;;;108467;1272;42352;-65
2022/06/03 04:16:43;;;;;;;8.10;3.70;;;;;17.84;97862.80;;;;108799;1267;42395;-65
2022/06/03 04:19:44;;;;;;;8.70;3.50;;;;;19.06;97849.00;;;;108939;1267;41647;-65
2022/06/03 04:22:40;;;;;;;8.30;4.10;;;;;20.32;97849.80;;;;108811;1268;41168;-65
2022/06/03 04:25:19;;;;;;;8.90;4.00;;;;;21.40;97851.60;;;;108759;1267;41297;-66
2022/06/03 04:28:12;;;;;;;10.40;4.50;;;;;22.28;97850.20;;;;108908;1267;41196;-66
2022/06/03 04:31:08;;;;;;;8.30;3.60;;;;;22.94;97848.00;;;;108892;1268;41278;-65
2022/06/03 04:33:55;;;;;;;9.30;3.60;;;;;23.74;97843.40;;;;108909;1268;41240;-68
2022/06/03 04:36:37;;;;;;;8.20;3.80;;;;;24.44;97843.20;;;;108740;1270;41619;-66
2022/06/03 04:39:22;;;;;;;9.50;4.30;;;;;25.10;97841.80;;;;108925;1267;42473;-64
2022/06/03 04:42:24;;;;;;;9.40;4.70;;;;;25.30;97838.20;;;;108796;1268;41290;-63
2022/06/03 04:45:12;;;;;;;12.00;4.30;;;;;25.20;97836.80;;;;108767;1268;42291;-66
2022/06/03 04:48:12;;;;;;;10.10;4.40;;;;;25.40;97837.00;;;;108738;1270;41287;-66
2022/06/03 04:51:23;;;;;;;9.80;4.40;;;;;25.72;97841.00;;;;108780;1268;41493;-66
2022/06/03 04:53:59;;;;;;;11.10;5.00;;;;;26.18;97839.60;;;;108311;1276;41283;-67
2022/06/03 04:56:55;;;;;;;12.20;4.20;;;;;26.00;97848.40;;;;108724;1269;41438;-65
2022/06/03 04:59:56;;;;;;;10.30;4.80;;;;;26.30;97851.00;;;;108943;1268;41937;-66
2022/06/03 05:02:47;;;;;;;10.80;3.90;;;;;26.46;97853.00;;;;108571;1270;41978;-65
2022/06/03 05:05:17;;;;;;;;;;;;;27.04;97854.00;;;;108826;1267;41476;-65
2022/06/03 05:08:12;;;;;;;8.40;3.80;;;;;27.60;97854.80;;;;108767;1267;41282;-67
2022/06/03 05:11:19;;;;;;;8.70;3.40;;;;;27.70;97854.00;;;;108660;1270;41695;-66
2022/06/03 05:13:58;;;;;;;6.70;3.10;;;;;27.68;97863.00;;;;108771;1267;41178;-66
2022/06/03 05:16:39;;;;;;;8.40;3.10;;;;;27.70;97860.00;;;;108766;1267;41180;-65
2022/06/03 05:19:53;;;;;;;9.30;3.10;;;;;27.90;97866.40;;;;108894;1267;41304;-66
2022/06/03 05:22:58;;;;;;;7.60;2.90;;;;;28.18;97868.60;;;;108789;1267;41883;-70
2022/06/03 05:25:55;;;;;;;9.00;3.20;;;;;28.30;97876.00;;;;108939;1267;41259;-69
2022/06/03 05:28:25;;;;;;;8.40;3.00;;;;;28.10;97894.20;;;;108779;1269;41867;-66
2022/06/03 05:31:03;;;;;;;6.20;2.60;;;;;27.64;97900.20;;;;108886;1267;41233;-67
2022/06/03 05:34:12;;;;;;;6.50;2.80;;;;;27.06;97903.60;;;;108756;1267;41968;-69
2022/06/03 05:36:53;;;;;;;8.90;3.40;;;;;26.46;97905.00;;;;108249;1276;41290;-69
2022/06/03 05:39:40;;;;;;;7.80;2.90;;;;;25.84;97911.20;;;;108474;1276;41208;-68
2022/06/03 05:42:34;;;;;;;7.20;3.20;;;;;25.46;97911.60;;;;108189;1276;41969;-67
2022/06/03 05:45:30;;;;;;;11.90;4.20;;;;;25.20;97913.40;;;;108264;1276;41186;-68
2022/06/03 05:48:02;;;;;;;9.20;4.20;;;;;25.22;97915.80;;;;108287;1275;41359;-69
2022/06/03 05:50:38;;;;;;;8.70;3.70;;;;;25.40;97902.00;;;;108266;1276;41189;-68
2022/06/03 05:53:08;;;;;;;10.10;3.40;;;;;25.76;97900.20;;;;108168;1276;41977;-67
2022/06/03 05:55:55;;;;;;;9.60;3.30;;;;;26.30;97902.20;;;;108197;1276;42168;-69
2022/06/03 05:58:32;;;;;;;6.50;2.80;;;;;26.90;97898.80;;;;108235;1276;41200;-66
2022/06/03 06:01:41;;;;;;;8.90;3.20;;;;;27.50;97904.00;;;;108246;1277;42444;-67
2022/06/03 06:04:32;;;;;;;6.90;2.80;;;;;28.28;97901.40;;;;108222;1276;41341;-69
2022/06/03 06:07:36;;;;;;;7.20;3.00;;;;;29.12;97906.40;;;;108245;1276;41214;-66
2022/06/03 06:10:11;;;;;;;8.30;3.10;;;;;29.80;97909.60;;;;108320;1270;41322;-69
2022/06/03 06:12:46;;;;;;;8.10;2.80;;;;;29.90;97912.60;;;;108881;1268;41966;-67
2022/06/03 06:15:22;;;;;;;8.50;3.20;;;;;29.60;97916.80;;;;108890;1267;41149;-69
2022/06/03 06:18:03;;;;;;;7.90;3.00;;;;;29.12;97920.40;;;;108755;1268;41161;-68
2022/06/03 06:20:38;;;;;;;10.40;3.80;;;;;28.70;97919.80;;;;108799;1267;42188;-68
2022/06/03 06:23:44;;;;;;;6.70;2.70;;;;;29.14;97924.60;;;;108891;1267;41287;-68
2022/06/03 06:26:40;;;;;;;7.00;2.70;;;;;29.66;97922.40;;;;108608;1267;42326;-70
2022/06/03 06:29:42;;;;;;;8.90;3.20;;;;;30.14;97929.60;;;;108513;1267;346591;-68
2022/06/03 06:32:36;;;;;;;7.10;2.60;;;;;30.30;97924.60;;;;108800;1267;41179;-66
2022/06/03 06:35:37;;;;;;;8.10;3.20;;;;;30.60;97927.40;;;;108806;1268;41193;-66
2022/06/03 06:38:12;;;;;;;10.30;4.10;;;;;30.10;97930.00;;;;108814;1267;41170;-66
2022/06/03 06:41:15;;;;;;;10.10;3.30;;;;;29.90;97921.60;;;;108752;1270;40888;-67
2022/06/03 06:44:08;;;;;;;10.00;4.10;;;;;30.04;97923.20;;;;108781;1267;41218;-66
2022/06/03 06:47:11;;;;;;;8.30;3.50;;;;;30.18;97919.40;;;;108809;1267;41189;-66
2022/06/03 06:50:11;;;;;;;8.00;3.50;;;;;30.74;97924.80;;;;108827;1267;41627;-66
2022/06/03 06:52:53;;;;;;;10.50;3.80;;;;;31.68;97927.80;;;;108794;1268;41305;-67
2022/06/03 06:55:56;;;;;;;7.80;3.20;;;;;32.30;97930.00;;;;108826;1267;42711;-65
2022/06/03 06:58:42;;;;;;;10.00;4.00;;;;;32.90;97931.20;;;;108801;1266;41159;-66
2022/06/03 07:01:26;;;;;;;8.70;4.20;;;;;32.62;97930.40;;;;108929;1267;41980;-66
2022/06/03 07:04:02;;;;;;;9.00;4.00;;;;;31.64;97933.40;;;;108801;1267;42421;-65
2022/06/03 07:07:08;;;;;;;9.10;3.20;;;;;31.22;97934.80;;;;108758;1270;42107;-67
2022/06/03 07:09:44;;;;;;;7.90;3.60;;;;;30.90;97930.60;;;;108882;1269;41392;-65
2022/06/03 07:12:22;;;;;;;9.40;3.80;;;;;30.46;97931.20;;;;108990;1267;41131;-67
2022/06/03 07:15:18;;;;;;;9.60;4.70;;;;;29.56;97940.60;;;;108770;1267;41656;-66
2022/06/03 07:21:23;;;;;;;8.90;3.90;;;;;28.16;97955.20;;;;108883;1267;41175;-66
2022/06/03 07:23:56;;;;;;;11.30;4.40;;;;;28.02;97955.20;;;;108752;1268;42236;-66
2022/06/03 07:26:38;;;;;;;8.50;3.60;;;;;27.70;97958.00;;;;108927;1269;41177;-65
2022/06/03 07:29:18;;;;;;;9.00;2.90;;;;;27.40;97956.40;;;;108931;1267;42744;-66
2022/06/03 07:32:16;;;;;;;10.60;4.20;;;;;27.12;97951.20;;;;108896;1267;41183;-67
2022/06/03 07:34:55;;;;;;;10.00;3.60;;;;;26.82;97952.80;;;;109004;1269;41290;-67
2022/06/03 07:37:27;;;;;;;10.70;3.00;;;;;26.60;97954.40;;;;108896;1267;41178;-67
2022/06/03 07:40:09;;;;;;;6.60;2.90;;;;;26.70;97946.60;;;;108768;1267;41755;-67
2022/06/03 07:42:41;;;;;;;9.30;3.80;;;;;26.94;97944.60;;;;108718;1268;41221;-67
2022/06/03 07:45:33;;;;;;;6.70;3.10;;;;;27.26;97947.80;;;;109090;1268;41138;-68
2022/06/03 07:48:07;;;;;;;6.10;2.60;;;;;27.20;97951.20;;;;108969;1267;42375;-67
2022/06/03 07:50:43;;;;;;;7.80;3.10;;;;;27.36;97951.60;;;;108858;1267;41749;-67
2022/06/03 07:53:18;;;;;;;7.40;3.10;;;;;27.70;97950.20;;;;108803;1269;41328;-66
2022/06/03 07:55:56;;;;;;;8.80;3.40;;;;;28.00;97953.60;;;;108866;1270;41176;-66
2022/06/03 07:58:26;;;;;;;8.70;3.10;;;;;27.80;97951.80;;;;108726;1268;41201;-67
2022/06/03 08:00:58;;;;;;;7.80;3.10;;;;;27.72;97953.40;;;;108751;1269;41298;-67
2022/06/03 08:03:36;;;;;;;6.80;2.70;;;;;27.70;97959.00;;;;108819;1268;41198;-67
2022/06/03 08:06:07;;;;;;;7.70;2.90;;;;;27.70;97958.80;;;;108932;1267;41168;-67
2022/06/03 08:11:33;;;;;;;6.90;2.50;;;;;27.98;97954.80;;;;108942;1267;41425;-68
2022/06/03 08:14:02;;;;;;;8.50;3.00;;;;;28.40;97957.60;;;;108912;1267;41645;-67
2022/06/03 08:16:32;;;;;;;6.20;2.50;;;;;28.40;97952.80;;;;108958;1267;41649;-67
2022/06/03 08:19:17;;;;;;;6.90;3.10;;;;;28.38;97946.00;;;;108972;1268;42585;-66
2022/06/03 08:21:52;;;;;;;7.90;2.70;;;;;28.10;97946.40;;;;108963;1267;41157;-67
2022/06/03 08:24:33;;;;;;;6.70;2.70;;;;;28.12;97946.20;;;;108948;1267;41285;-68
2022/06/03 08:27:05;;;;;;;7.60;3.00;;;;;28.20;97950.60;;;;108939;1267;41783;-67
2022/06/03 08:29:42;;;;;;;7.00;2.70;;;;;28.30;97944.60;;;;108992;1267;41192;-66
2022/06/03 08:32:37;;;;;;;9.70;2.90;;;;;28.40;97939.20;;;;108876;1268;41569;-67
2022/06/03 08:35:13;;;;;;;7.70;2.80;;;;;28.70;97944.20;;;;108805;1270;41213;-68
2022/06/03 08:38:15;;;;;;;9.20;2.50;;;;;29.18;97941.60;;;;109032;1268;41863;-66
2022/06/03 08:41:10;;;;;;;8.70;2.90;;;;;29.72;97944.20;;;;108868;1268;41293;-67
2022/06/03 08:44:02;;;;;;;8.70;2.90;;;;;29.80;97946.20;;;;108959;1267;41368;-67
2022/06/03 08:46:37;;;;;;;6.90;2.30;;;;;29.76;97942.40;;;;108898;1267;41619;-67
2022/06/03 08:49:12;;;;;;;7.90;2.90;;;;;29.78;97942.00;;;;108835;1267;41756;-68
2022/06/03 08:51:49;;;;;;;7.20;2.40;;;;;30.06;97943.20;;;;108938;1268;41689;-69
2022/06/03 08:54:27;;;;;;;6.90;2.40;;;;;30.20;97943.60;;;;108923;1270;42707;-68
2022/06/03 08:57:03;;;;;;;7.20;2.70;;;;;30.60;97948.00;;;;108825;1270;41285;-67
2022/06/03 08:59:39;;;;;;;8.60;3.00;;;;;30.70;97947.20;;;;109090;1268;41176;-67
2022/06/03 09:02:32;;;;;;;8.00;3.00;;;;;30.56;97951.40;;;;108971;1267;41170;-68
2022/06/03 09:05:19;;;;;;;8.10;2.90;;;;;30.46;97946.80;;;;108801;1268;41631;-67
2022/06/03 09:07:57;;;;;;;6.50;2.60;;;;;30.20;97949.00;;;;108923;1267;41746;-68
2022/06/03 09:10:57;;;;;;;7.00;2.90;;;;;30.20;97947.20;;;;108936;1267;41995;-67
2022/06/03 09:13:37;;;;;;;8.30;2.70;;;;;30.60;97949.20;;;;108805;1269;41230;-67
2022/06/03 09:16:08;;;;;;;8.80;2.50;;;;;31.18;97949.40;;;;108882;1268;42433;-67
2022/06/03 09:18:43;;;;;;;5.30;2.20;;;;;31.72;97947.80;;;;109065;1267;41179;-68
2022/06/03 09:21:19;;;;;;;8.10;2.50;;;;;32.44;97943.40;;;;108894;1270;41400;-68
2022/06/03 09:23:54;;;;;;;6.30;2.10;;;;;33.34;97940.80;;;;108928;1270;41360;-68
2022/06/03 09:26:31;;;;;;;6.20;2.30;;;;;34.16;97934.60;;;;109039;1270;41633;-69
2022/06/03 09:29:02;;;;;;;5.70;2.10;;;;;35.10;97925.00;;;;108861;1268;41400;-68
2022/06/03 09:31:32;;;;;;;7.70;2.30;;;;;35.50;97925.00;;;;108878;1268;41654;-69
2022/06/03 09:34:06;;;;;;;8.80;2.80;;;;;35.36;97928.00;;;;108913;1267;41169;-68
2022/06/03 09:36:35;;;;;;;5.00;2.00;;;;;35.30;97929.00;;;;109019;1267;41161;-69
2022/06/03 09:39:11;;;;;;;5.60;2.40;;;;;35.24;97934.40;;;;109028;1269;41495;-68
2022/06/03 09:41:45;;;;;;;5.80;2.30;;;;;35.10;97930.60;;;;108987;1268;41297;-68
2022/06/03 09:44:18;;;;;;;6.50;2.10;;;;;34.98;97934.80;;;;108996;1268;41724;-68
2022/06/03 09:46:58;;;;;;;6.30;2.30;;;;;34.56;97939.00;;;;108885;1267;41175;-69
2022/06/03 09:49:29;;;;;;;8.30;2.90;;;;;34.60;97941.20;;;;108831;1268;41297;-69
2022/06/03 09:52:03;;;;;;;8.60;2.50;;;;;34.92;97944.20;;;;108958;1268;41294;-68
2022/06/03 09:54:38;;;;;;;4.90;2.00;;;;;34.80;97941.60;;;;108779;1270;41619;-68
2022/06/03 09:57:12;;;;;;;5.30;2.20;;;;;34.80;97946.00;;;;108865;1269;41217;-68
2022/06/03 09:59:53;;;;;;;5.00;1.90;;;;;34.60;97948.20;;;;108973;1267;41273;-68
2022/06/03 10:02:22;;;;;;;4.90;1.90;;;;;33.98;97949.80;;;;108949;1268;42441;-70
2022/06/03 10:04:50;;;;;;;5.00;2.00;;;;;34.62;97947.80;;;;108954;1268;41638;-68
2022/06/03 10:07:20;;;;;;;5.30;2.00;;;;;35.10;97948.40;;;;108836;1270;41297;-67
2022/06/03 10:12:49;;;;;;;5.40;2.00;;;;;35.12;97941.40;;;;109010;1268;41643;-68
2022/06/03 10:15:38;;;;;;;3.70;1.70;;;;;35.10;97941.40;;;;108927;1269;41295;-69
2022/06/03 10:18:25;;;;;;;4.50;1.80;;;;;34.76;97941.00;;;;108944;1268;41630;-68
2022/06/03 10:21:20;;;;;;;4.20;1.90;;;;;34.40;97941.60;;;;108990;1267;41641;-68
2022/06/03 10:23:51;;;;;;;4.90;2.10;;;;;34.10;97939.80;;;;108922;1268;42539;-68
2022/06/03 10:26:35;;;;;;;4.50;2.00;;;;;33.90;97937.40;;;;108992;1267;41287;-68
2022/06/03 10:29:15;;;;;;;5.60;1.80;;;;;33.76;97940.20;;;;108920;1268;41301;-67
2022/06/03 10:31:50;;;;;;;7.10;2.40;;;;;33.70;97936.20;;;;108887;1267;41284;-67
2022/06/03 10:34:28;;;;;;;7.70;2.70;;;;;33.72;97935.00;;;;108824;1270;41828;-68
2022/06/03 10:36:57;;;;;;;4.80;2.00;;;;;33.80;97933.00;;;;108922;1267;41168;-69
2022/06/03 10:39:27;;;;;;;6.10;2.50;;;;;33.60;97937.40;;;;108884;1267;41585;-68
2022/06/03 10:41:58;;;;;;;7.60;2.40;;;;;33.28;97930.40;;;;109004;1267;41743;-68
2022/06/03 10:44:36;;;;;;;4.90;1.90;;;;;33.04;97930.80;;;;108916;1268;42228;-68
2022/06/03 10:47:06;;;;;;;7.50;2.10;;;;;33.10;97932.40;;;;108951;1268;42084;-69
2022/06/03 10:49:52;;;;;;;7.40;2.40;;;;;33.30;97925.00;;;;108943;1267;41183;-68
2022/06/03 11:01:33;;;;;;;;;;;;;35.56;97902.60;;;;108946;1268;41178;-68
2022/06/03 11:04:02;;;;;;;5.20;1.80;;;;;36.40;97898.80;;;;108977;1265;41636;-68
2022/06/03 11:06:39;;;;;;;4.40;1.90;;;;;36.78;97899.00;;;;109038;1268;42298;-69
2022/06/03 11:09:09;;;;;;;5.10;1.90;;;;;37.56;97890.20;;;;108943;1267;41349;-69
2022/06/03 11:11:46;;;;;;;4.60;1.80;;;;;38.56;97888.00;;;;108908;1270;41243;-69
2022/06/03 11:14:39;;;;;;;5.50;1.80;;;;;39.52;97892.20;;;;109057;1267;41723;-69
2022/06/03 11:17:31;;;;;;;5.20;2.00;;;;;39.80;97874.80;;;;108973;1268;41179;-69
2022/06/03 11:20:01;;;;;;;3.60;1.70;;;;;40.50;97868.00;;;;108943;1267;41384;-69
2022/06/03 11:22:33;;;;;;;3.80;1.70;;;;;40.74;97862.40;;;;108895;1269;42814;-69
2022/06/03 11:25:18;;;;;;;3.60;1.60;;;;;41.32;97862.00;;;;109040;1267;41956;-69
2022/06/03 11:28:00;;;;;;;4.80;1.80;;;;;41.64;97860.40;;;;109062;1266;41175;-69
2022/06/03 11:30:43;;;;;;;2.90;1.50;;;;;42.06;97859.40;;;;108987;1267;41279;-69
2022/06/03 11:33:15;;;;;;;4.00;1.60;;;;;42.04;97868.40;;;;108960;1267;41291;-69
2022/06/03 11:36:00;;;;;;;3.80;1.60;;;;;41.20;97861.40;;;;109054;1267;41796;-69
2022/06/03 11:38:42;;;;;;;3.40;1.70;;;;;41.48;97858.80;;;;108878;1270;41181;-69
2022/06/03 11:41:23;;;;;;;2.80;1.50;;;;;42.10;97860.80;;;;109086;1268;41175;-69
2022/06/03 11:44:04;;;;;;;4.80;1.80;;;;;42.58;97859.20;;;;108888;1270;41287;-70
2022/06/03 11:46:37;;;;;;;5.30;1.80;;;;;42.74;97858.40;;;;108923;1268;42096;-69
2022/06/03 11:49:07;;;;;;;4.50;1.70;;;;;42.48;97861.60;;;;108755;1270;42532;-69
2022/06/03 11:51:36;;;;;;;4.30;1.70;;;;;42.38;97858.60;;;;108819;1270;41185;-70
2022/06/03 11:54:13;;;;;;;4.50;1.60;;;;;42.50;97858.60;;;;108866;1270;41256;-70
2022/06/03 11:56:44;;;;;;;5.20;1.80;;;;;42.70;97862.60;;;;108963;1267;41152;-71
2022/06/03 11:59:25;;;;;;;4.60;1.60;;;;;42.50;97855.80;;;;108955;1270;41951;-71
2022/06/03 12:02:19;;;;;;;3.00;1.60;;;;;42.54;97858.00;;;;108707;1271;41184;-71
2022/06/03 12:04:55;;;;;;;4.30;1.70;;;;;42.38;97866.60;;;;108731;1271;41306;-69
2022/06/03 12:07:43;;;;;;;3.90;1.70;;;;;41.88;97861.40;;;;108796;1271;41188;-69
2022/06/03 12:10:18;;;;;;;4.40;1.70;;;;;40.60;97861.00;;;;108650;1273;41641;-70
2022/06/03 12:15:40;;;;;;;4.70;1.80;;;;;38.52;97862.00;;;;108630;1273;41190;-69
2022/06/03 12:18:09;;;;;;;3.10;1.50;;;;;37.94;97855.60;;;;108659;1271;42072;-69
2022/06/03 12:20:47;;;;;;;4.60;1.80;;;;;37.44;97859.60;;;;108646;1273;41454;-70
2022/06/03 12:23:15;;;;;;;6.30;2.00;;;;;37.00;97859.60;;;;108731;1271;41203;-69
2022/06/03 12:25:53;;;;;;;4.70;1.70;;;;;35.50;97855.20;;;;108747;1272;41336;-69
2022/06/03 12:28:38;;;;;;;4.60;1.70;;;;;33.28;97856.40;;;;108685;1273;42066;-70
2022/06/03 12:31:17;;;;;;;5.60;1.90;;;;;32.90;97858.00;;;;108702;1273;41642;-69
2022/06/03 12:33:54;;;;;;;5.60;1.90;;;;;32.32;97855.60;;;;108863;1267;41456;-69
2022/06/03 12:36:46;;;;;;;5.30;1.70;;;;;31.88;97849.60;;;;108836;1270;41996;-69
2022/06/03 12:39:18;;;;;;;4.50;1.60;;;;;32.22;97844.80;;;;109118;1268;41657;-70
2022/06/03 12:41:47;;;;;;;4.50;1.80;;;;;32.38;97842.20;;;;109082;1268;41560;-69
2022/06/03 12:44:36;;;;;;;5.00;1.70;;;;;32.62;97844.60;;;;108953;1267;41293;-69
2022/06/03 12:47:26;;;;;;;4.80;1.80;;;;;32.64;97841.80;;;;108978;1267;41277;-69
2022/06/03 12:50:04;;;;;;;4.50;1.60;;;;;32.80;97840.40;;;;108930;1268;41204;-69
2022/06/03 12:52:35;;;;;;;3.80;1.70;;;;;32.90;97839.40;;;;109026;1267;42334;-69
2022/06/03 12:55:09;;;;;;;5.10;2.10;;;;;33.00;97832.80;;;;108959;1268;41187;-68
2022/06/03 12:57:54;;;;;;;4.40;1.80;;;;;32.76;97832.60;;;;108934;1268;41533;-68
2022/06/03 13:00:32;;;;;;;6.10;1.70;;;;;32.98;97832.00;;;;109009;1267;42380;-68
2022/06/03 13:03:07;;;;;;;5.60;2.10;;;;;32.90;97829.60;;;;108916;1270;41629;-69
2022/06/03 13:05:42;;;;;;;4.00;1.70;;;;;32.90;97822.40;;;;109017;1267;41177;-68
2022/06/03 13:08:14;;;;;;;5.30;1.90;;;;;32.90;97822.00;;;;108999;1268;42388;-69
2022/06/03 13:10:58;;;;;;;6.20;1.80;;;;;32.98;97819.40;;;;108880;1270;41161;-68
2022/06/03 13:13:28;;;;;;;4.30;2.00;;;;;33.00;97817.40;;;;109048;1267;41179;-69
2022/06/03 13:16:15;;;;;;;;;;;;;32.90;97820.40;;;;109020;1267;41879;-68
2022/06/03 13:18:50;;;;;;;4.80;1.80;;;;;32.90;97819.40;;;;108962;1267;41242;-69
2022/06/03 13:21:22;;;;;;;4.50;2.00;;;;;32.90;97820.00;;;;108850;1270;41182;-67
2022/06/03 13:23:51;;;;;;;5.90;2.00;;;;;33.00;97819.60;;;;108820;1270;41292;-68
2022/06/03 13:26:22;;;;;;;3.30;1.70;;;;;33.02;97816.60;;;;109059;1267;41175;-69
2022/06/03 13:28:53;;;;;;;5.10;1.80;;;;;33.10;97813.20;;;;108999;1266;41403;-67
2022/06/03 13:31:43;;;;;;;4.90;2.00;;;;;33.14;97814.40;;;;108962;1267;41513;-68
2022/06/03 13:34:15;;;;;;;4.30;1.80;;;;;33.20;97809.80;;;;108775;1269;42009;-68
2022/06/03 13:36:50;;;;;;;4.40;1.90;;;;;33.10;97806.60;;;;109014;1268;41640;-67
2022/06/03 13:39:28;;;;;;;4.10;1.80;;;;;33.06;97808.40;;;;108956;1267;41225;-69
2022/06/03 13:45:03;;;;;;;5.50;2.20;;;;;32.94;97813.40;;;;109011;1267;41197;-67
2022/06/03 13:47:36;;;;;;;6.20;2.10;;;;;32.60;97816.60;;;;109138;1267;41317;-68
2022/06/03 13:50:13;;;;;;;5.00;1.90;;;;;32.34;97823.20;;;;109073;1267;41176;-68
2022/06/03 13:52:58;;;;;;;4.10;1.70;;;;;32.18;97827.60;;;;109086;1268;41753;-67
2022/06/03 13:55:45;;;;;;;3.90;1.70;;;;;32.00;97826.20;;;;108866;1270;41517;-70
2022/06/03 13:58:14;;;;;;;5.60;1.90;;;;;31.90;97826.40;;;;109023;1270;41335;-68
2022/06/03 14:00:49;;;;;;;7.00;2.00;;;;;31.88;97825.40;;;;109119;1268;41270;-68
2022/06/03 14:03:48;;;;;;;6.00;1.80;;;;;31.80;97827.60;;;;108928;1269;41170;-68